Time;durP1;ratioP1;P1;durP2;ratioP2;P2;SDS_P1;SDS_P2;PMS_P1;PMS_P2;Temp;Humidity;BMP_temperature;BMP_pressure;BME280_temperature;BME280_humidity;BME280_pressure;Samples;Min_cycle;Max_cycle;Signal;HPM_P1;HPM_P2
2022/05/31 00:00:16;;;;;;;3.30;1.40;;;12.70;51.60;;;9.04;68.37;95014.16;5045788;28;20286;-56
2022/05/31 00:02:49;;;;;;;1.85;1.40;;;12.80;51.60;;;9.04;68.43;95006.97;5055400;28;20455;-55
2022/05/31 00:05:15;;;;;;;;;;;12.80;51.60;;;9.09;68.91;95002.72;5038966;28;20029;-56
2022/05/31 00:07:42;;;;;;;2.58;1.58;;;12.80;51.20;;;9.11;68.53;95011.22;5055500;28;19908;-55
2022/05/31 00:10:12;;;;;;;3.65;1.77;;;12.90;51.30;;;9.13;68.47;95007.22;5055293;28;20364;-55
2022/05/31 00:12:51;;;;;;;3.53;1.58;;;12.90;51.40;;;9.12;68.94;94996.84;5072967;28;20036;-56
2022/05/31 00:15:21;;;;;;;4.35;1.75;;;13.00;51.80;;;9.15;69.12;95007.75;5055553;28;20029;-54
2022/05/31 00:17:50;;;;;;;5.22;1.92;;;13.00;51.80;;;9.16;68.63;94997.94;5055016;28;20407;-55
2022/05/31 00:20:24;;;;;;;2.92;1.27;;;13.00;51.80;;;9.22;68.70;95002.16;5055480;28;20376;-56
2022/05/31 00:22:53;;;;;;;2.23;1.77;;;13.00;52.00;;;9.25;68.73;94998.97;5072874;28;20029;-56
2022/05/31 00:25:19;;;;;;;2.17;1.60;;;13.10;52.00;;;9.24;68.88;94995.53;5057040;28;20313;-55
2022/05/31 00:27:48;;;;;;;2.20;1.60;;;13.00;52.00;;;9.21;69.37;95000.56;5074194;28;20039;-56
2022/05/31 00:30:16;;;;;;;5.07;1.85;;;13.10;52.30;;;9.22;68.88;95002.16;5055162;28;20086;-56
2022/05/31 00:32:49;;;;;;;3.00;1.60;;;13.10;52.20;;;9.19;68.87;95000.84;5073078;28;20516;-55
2022/05/31 00:35:32;;;;;;;;;;;13.10;52.30;;;9.23;69.27;94998.44;5055883;28;20029;-54
2022/05/31 00:38:00;;;;;;;5.88;1.95;;;13.10;51.90;;;9.29;69.25;95002.66;5055065;28;19958;-55
2022/05/31 00:40:31;;;;;;;3.50;1.77;;;13.10;51.80;;;9.29;69.90;94993.91;5055352;28;20025;-56
2022/05/31 00:43:07;;;;;;;3.30;1.70;;;13.10;52.20;;;9.24;69.56;94986.72;5055099;28;20028;-55
2022/05/31 00:45:58;;;;;;;4.18;1.80;;;13.10;52.30;;;9.27;69.34;94994.16;5055247;28;20032;-56
2022/05/31 00:48:44;;;;;;;3.47;1.73;;;13.10;52.70;;;9.26;69.27;94992.59;5072920;28;20031;-52
2022/05/31 00:51:19;;;;;;;2.80;1.90;;;13.10;52.70;;;9.32;68.99;95001.34;5072261;28;20040;-55
2022/05/31 00:53:54;;;;;;;4.47;1.92;;;13.10;52.70;;;9.42;68.46;95010.06;5041887;28;20414;-54
2022/05/31 00:56:24;;;;;;;5.53;1.90;;;13.20;52.70;;;9.40;68.18;95003.44;5054593;28;20056;-51
2022/05/31 00:59:35;;;;;;;2.17;1.60;;;13.20;52.50;;;9.44;68.44;95007.16;5054347;28;20044;-53
2022/05/31 01:02:01;;;;;;;3.15;1.70;;;13.20;52.50;;;9.45;68.23;95009.53;5054604;28;20506;-53
2022/05/31 01:04:59;;;;;;;3.60;1.98;;;13.30;52.30;;;9.49;68.61;95009.78;5072693;28;20028;-55
2022/05/31 01:07:27;;;;;;;5.05;1.85;;;13.30;52.40;;;9.49;68.12;95007.13;5059666;28;20059;-51
2022/05/31 01:09:55;;;;;;;2.50;1.85;;;13.30;52.20;;;9.52;68.79;95021.75;5055191;28;20439;-52
2022/05/31 01:12:26;;;;;;;2.75;1.90;;;13.30;52.20;;;9.54;68.41;95015.09;5076278;28;20020;-53
2022/05/31 01:15:08;;;;;;;3.10;1.88;;;13.40;52.40;;;9.55;68.09;95005.25;5037845;28;20535;-50
2022/05/31 01:17:34;;;;;;;3.45;1.85;;;13.40;52.40;;;9.53;68.25;95002.88;5067513;28;20098;-51
2022/05/31 01:20:17;;;;;;;3.45;1.90;;;13.40;52.40;;;9.57;67.62;95008.44;5057687;28;20068;-50
2022/05/31 01:22:55;;;;;;;4.88;1.73;;;13.40;52.40;;;9.57;67.56;95014.53;5076260;28;20040;-53
2022/05/31 01:26:13;;;;;;;1.90;1.70;;;13.40;52.30;;;9.57;68.21;95006.56;5057492;28;20040;-51
2022/05/31 01:29:13;;;;;;;2.50;1.45;;;13.40;52.40;;;9.57;67.98;95008.44;5057696;28;20028;-54
2022/05/31 01:31:45;;;;;;;3.38;1.67;;;13.40;52.30;;;9.56;68.71;95007.66;5058598;28;20123;-56
2022/05/31 01:34:30;;;;;;;4.23;2.00;;;13.40;52.30;;;9.52;68.69;95005.78;5057959;28;20031;-53
2022/05/31 01:36:57;;;;;;;3.85;1.80;;;13.40;52.50;;;9.49;68.87;95012.44;5057721;28;20025;-55
2022/05/31 01:39:51;;;;;;;4.63;2.13;;;13.30;52.40;;;9.47;69.06;95015.38;5075416;28;20032;-53
2022/05/31 01:42:33;;;;;;;3.88;2.00;;;13.30;52.70;;;9.43;69.85;95005.53;5057865;28;20032;-56
2022/05/31 01:45:26;;;;;;;4.30;2.28;;;13.30;52.80;;;9.37;70.81;95019.91;5075446;28;20041;-55
2022/05/31 01:48:01;;;;;;;4.60;1.88;;;13.30;53.10;;;9.32;71.05;95015.41;5057016;28;20035;-54
2022/05/31 01:50:27;;;;;;;4.95;2.00;;;13.20;52.80;;;9.27;71.21;95016.25;5074997;28;20031;-53
2022/05/31 01:53:03;;;;;;;3.63;2.00;;;13.20;53.10;;;9.31;71.45;95016.50;5038183;28;20032;-55
2022/05/31 01:55:40;;;;;;;5.47;2.38;;;13.20;53.50;;;9.31;71.46;95034.28;5055778;28;20414;-56
2022/05/31 01:58:23;;;;;;;2.85;1.80;;;13.20;53.60;;;9.29;71.42;95028.47;5040657;28;20826;-51
2022/05/31 02:00:50;;;;;;;6.05;1.90;;;13.10;53.70;;;9.26;71.61;95029.78;5055805;28;20068;-52
2022/05/31 02:03:20;;;;;;;3.30;1.92;;;13.10;53.50;;;9.26;71.46;95024.47;5056428;28;20028;-55
2022/05/31 02:05:52;;;;;;;3.70;1.80;;;13.10;53.80;;;9.20;71.61;95029.00;5056094;28;20029;-54
2022/05/31 02:08:22;;;;;;;5.57;2.30;;;13.10;53.90;;;9.23;71.48;95035.63;5055903;28;20056;-52
2022/05/31 02:10:49;;;;;;;4.50;1.75;;;13.10;53.80;;;9.22;71.18;95040.16;5056207;28;20477;-53
2022/05/31 02:13:18;;;;;;;2.63;1.67;;;13.10;53.80;;;9.24;70.74;95048.69;5055999;28;20035;-55
2022/05/31 02:15:47;;;;;;;2.78;1.80;;;13.10;53.80;;;9.23;71.13;95046.28;5055923;28;20103;-55
2022/05/31 02:18:16;;;;;;;2.45;2.03;;;13.10;53.80;;;9.21;71.80;95051.03;5074175;28;20475;-55
2022/05/31 02:20:42;;;;;;;2.83;1.95;;;13.10;53.90;;;9.16;71.71;95043.91;5055464;28;20025;-55
2022/05/31 02:23:07;;;;;;;2.97;1.67;;;13.10;54.00;;;9.17;71.63;95050.78;5055048;28;20577;-56
2022/05/31 02:25:42;;;;;;;4.10;1.77;;;13.10;54.00;;;9.18;71.41;95054.25;5073694;28;20082;-55
2022/05/31 02:28:13;;;;;;;2.97;1.80;;;13.10;54.30;;;9.17;71.85;95055.31;5056041;28;20513;-56
2022/05/31 02:30:39;;;;;;;4.88;2.08;;;13.10;54.30;;;9.20;72.01;95054.78;5055231;28;20032;-56
2022/05/31 02:33:07;;;;;;;2.83;1.75;;;13.10;54.30;;;9.22;72.04;95052.66;5055762;28;20055;-56
2022/05/31 02:35:35;;;;;;;4.00;1.92;;;13.10;54.50;;;9.24;72.48;95058.47;5055618;28;20479;-55
2022/05/31 02:38:01;;;;;;;4.90;2.10;;;13.10;54.50;;;9.25;72.23;95052.13;5073752;28;20037;-55
2022/05/31 02:40:28;;;;;;;4.13;1.95;;;13.10;54.60;;;9.29;72.02;95052.38;5073050;28;20482;-54
2022/05/31 02:42:59;;;;;;;3.28;2.00;;;13.20;54.70;;;9.32;71.86;95049.19;5055813;28;20044;-55
2022/05/31 02:45:28;;;;;;;4.22;2.00;;;13.20;54.80;;;9.36;71.80;95044.91;5053826;28;20491;-54
2022/05/31 02:47:57;;;;;;;4.15;2.20;;;13.20;54.90;;;9.40;71.31;95044.13;5055460;28;20078;-51
2022/05/31 02:50:29;;;;;;;4.47;1.77;;;13.30;54.90;;;9.45;71.00;95048.63;5072711;28;20044;-49
2022/05/31 02:52:54;;;;;;;2.80;2.10;;;13.30;55.00;;;9.43;71.13;95043.59;5064040;28;20082;-52
2022/05/31 02:55:20;;;;;;;2.88;1.80;;;13.30;54.80;;;9.51;71.22;95050.19;5055262;28;20032;-53
2022/05/31 02:57:46;;;;;;;18.70;4.05;;;13.30;54.80;;;9.53;70.52;95048.06;5071235;28;20056;-48
2022/05/31 03:00:14;;;;;;;4.22;2.00;;;13.30;54.70;;;9.56;70.68;95049.38;5054747;28;20033;-49
2022/05/31 03:02:46;;;;;;;3.13;1.70;;;13.40;54.70;;;9.58;70.81;95058.69;5072824;28;20161;-51
2022/05/31 03:05:18;;;;;;;2.67;1.98;;;13.40;54.70;;;9.60;70.93;95059.22;5054779;28;20027;-50
2022/05/31 03:07:47;;;;;;;2.53;1.90;;;13.40;55.40;;;9.61;71.14;95060.00;5073033;28;20036;-49
2022/05/31 03:10:12;;;;;;;2.70;2.08;;;13.40;54.60;;;9.56;72.01;95054.69;5071377;28;20301;-52
2022/05/31 03:12:44;;;;;;;4.22;2.28;;;13.50;54.80;;;9.55;71.96;95053.09;5072735;28;20028;-51
2022/05/31 03:15:19;;;;;;;4.90;1.97;;;13.40;54.80;;;9.52;71.66;95050.97;5072514;28;20024;-48
2022/05/31 03:17:56;;;;;;;4.28;2.40;;;13.40;54.90;;;9.50;71.81;95049.41;5055057;28;20044;-51
2022/05/31 03:20:34;;;;;;;3.33;2.28;;;13.40;54.90;;;9.49;71.91;95049.66;5051385;28;20025;-48
2022/05/31 03:23:19;;;;;;;3.88;2.08;;;13.40;55.00;;;9.48;72.19;95059.50;5072512;28;20021;-49
2022/05/31 03:25:50;;;;;;;4.57;2.10;;;13.40;55.10;;;9.47;71.93;95049.94;5055361;28;20115;-49
2022/05/31 03:28:18;;;;;;;3.22;1.88;;;13.30;55.10;;;9.48;72.26;95043.56;5072394;28;20036;-51
2022/05/31 03:30:50;;;;;;;3.97;2.50;;;13.30;55.20;;;9.49;73.39;95042.50;5066023;28;20422;-52
2022/05/31 03:33:16;;;;;;;7.10;2.15;;;13.40;55.70;;;9.49;73.18;95042.50;5052414;28;20040;-48
2022/05/31 03:35:42;;;;;;;3.40;2.10;;;13.40;55.60;;;9.53;72.80;95049.91;5054337;28;20509;-50
2022/05/31 03:38:10;;;;;;;6.35;2.10;;;13.40;55.60;;;9.50;73.02;95038.78;5072257;28;20119;-53
2022/05/31 03:43:37;;;;;;;4.38;2.30;;;13.40;55.80;;;9.52;73.11;95045.66;5072345;28;20089;-51
2022/05/31 03:46:03;;;;;;;4.00;2.10;;;13.40;55.70;;;9.51;72.76;95042.22;5054237;28;20077;-48
2022/05/31 03:48:32;;;;;;;3.35;2.17;;;13.40;55.70;;;9.52;73.17;95048.31;5072223;28;20115;-48
2022/05/31 03:51:07;;;;;;;2.83;2.00;;;13.40;55.70;;;9.52;73.50;95045.66;5072152;28;20480;-49
2022/05/31 03:53:40;;;;;;;2.53;2.20;;;13.40;55.70;;;9.53;73.64;95042.75;5054620;28;20052;-50
2022/05/31 03:56:09;;;;;;;2.63;2.20;;;13.40;55.90;;;9.53;73.31;95042.75;5053885;28;20056;-48
2022/05/31 03:58:44;;;;;;;6.00;2.10;;;13.40;55.70;;;9.54;73.25;95046.19;5071878;28;20068;-48
2022/05/31 04:01:19;;;;;;;6.05;2.50;;;13.40;55.90;;;9.54;73.55;95047.00;5021581;28;20024;-50
2022/05/31 04:03:51;;;;;;;2.30;2.00;;;13.50;56.00;;;9.54;73.47;95051.53;5072187;28;20020;-49
2022/05/31 04:06:16;;;;;;;2.30;2.00;;;13.40;55.80;;;9.53;73.89;95056.06;5071855;28;20024;-47
2022/05/31 04:08:44;;;;;;;2.97;2.00;;;13.40;55.80;;;9.53;74.20;95058.72;5054203;28;20039;-52
2022/05/31 04:11:13;;;;;;;4.15;2.20;;;13.50;56.00;;;9.54;74.33;95062.94;5053803;28;20032;-53
2022/05/31 04:13:39;;;;;;;3.55;2.28;;;13.60;56.00;;;9.58;73.72;95065.84;5072066;28;20144;-51
2022/05/31 04:16:20;;;;;;;3.22;2.47;;;13.60;56.00;;;9.60;73.36;95069.84;5071875;28;20103;-49
2022/05/31 04:18:46;;;;;;;4.68;2.42;;;13.60;56.10;;;9.64;73.33;95070.09;5071949;28;20111;-54
2022/05/31 04:21:18;;;;;;;5.80;2.30;;;13.60;55.90;;;9.66;73.45;95070.63;5071811;28;20118;-52
2022/05/31 04:24:08;;;;;;;6.05;2.38;;;13.70;56.10;;;9.71;73.83;95068.75;5053730;28;20189;-50
2022/05/31 04:26:47;;;;;;;6.65;2.25;;;13.80;56.10;;;9.79;73.97;95067.38;5056995;28;20032;-52
2022/05/31 04:29:13;;;;;;;5.07;2.50;;;13.90;56.20;;;9.87;73.99;95063.34;5054211;28;20047;-48
2022/05/31 04:31:41;;;;;;;5.93;2.47;;;13.90;56.00;;;9.94;73.78;95059.34;5071691;28;20029;-50
2022/05/31 04:34:07;;;;;;;3.20;2.33;;;14.00;56.10;;;10.04;73.91;95065.69;5071669;28;20032;-50
2022/05/31 04:36:33;;;;;;;4.70;2.42;;;14.10;56.10;;;10.15;72.97;95067.22;5053732;28;20032;-52
2022/05/31 04:39:00;;;;;;;5.97;2.50;;;14.20;56.10;;;10.28;72.53;95071.19;5053907;28;20060;-49
2022/05/31 04:41:31;;;;;;;4.60;2.20;;;14.20;56.10;;;10.36;71.87;95073.28;5053822;28;20029;-53
2022/05/31 04:44:08;;;;;;;5.00;2.30;;;14.30;56.10;;;10.39;72.10;95073.53;5071639;28;20020;-52
2022/05/31 04:46:35;;;;;;;5.72;2.75;;;14.40;56.00;;;10.44;71.99;95083.34;5074608;28;20550;-51
2022/05/31 04:49:02;;;;;;;6.63;2.78;;;14.50;55.80;;;10.45;72.74;95068.97;5040829;28;20437;-50
2022/05/31 04:51:38;;;;;;;8.25;2.58;;;14.60;55.90;;;10.55;72.49;95081.41;5057550;28;20032;-48
2022/05/31 04:54:05;;;;;;;3.15;2.03;;;14.60;55.90;;;10.90;71.39;95072.38;5058419;28;20040;-49
2022/05/31 04:56:34;;;;;;;9.52;2.58;;;14.90;55.70;;;11.40;70.46;95077.56;5074994;28;20109;-48
2022/05/31 04:59:00;;;;;;;8.52;2.70;;;15.20;55.60;;;11.68;68.75;95076.72;5035502;28;20037;-47
2022/05/31 05:01:26;;;;;;;5.00;2.38;;;15.40;55.20;;;11.82;68.19;95074.19;5073876;28;20158;-50
2022/05/31 05:03:54;;;;;;;5.68;2.50;;;15.60;55.00;;;12.04;67.31;95079.03;5057295;28;20036;-52
2022/05/31 05:06:22;;;;;;;3.40;2.35;;;15.80;54.80;;;12.18;66.91;95069.22;5040746;28;20155;-50
2022/05/31 05:08:49;;;;;;;3.40;2.33;;;16.00;54.70;;;12.53;66.23;95074.38;5075162;28;20395;-52
2022/05/31 05:11:18;;;;;;;4.75;2.30;;;16.20;54.30;;;12.69;66.31;95057.88;5074952;28;20450;-54
2022/05/31 05:13:44;;;;;;;4.57;2.30;;;16.40;54.20;;;13.05;66.25;95076.00;5057171;28;20038;-51
2022/05/31 05:16:15;;;;;;;3.53;2.33;;;16.60;54.00;;;13.37;64.79;95074.44;5037193;28;20028;-52
2022/05/31 05:18:50;;;;;;;5.03;2.20;;;16.90;53.80;;;13.64;63.01;95073.69;5051011;28;20036;-48
2022/05/31 05:21:16;;;;;;;5.72;2.03;;;17.20;53.40;;;13.95;61.49;95075.81;5056981;28;20025;-52
2022/05/31 05:23:51;;;;;;;2.53;2.00;;;17.50;52.90;;;14.01;61.84;95071.94;5074645;28;20025;-53
2022/05/31 05:26:17;;;;;;;2.78;1.90;;;17.70;52.60;;;14.18;60.83;95071.31;5033789;28;20097;-51
2022/05/31 05:31:52;;;;;;;1.75;1.48;;;18.10;51.60;;;14.19;62.00;95076.38;5007078;28;20029;-54
2022/05/31 05:34:21;;;;;;;4.43;2.10;;;18.30;51.40;;;14.35;59.76;95080.34;4995921;28;20038;-52
2022/05/31 05:36:46;;;;;;;4.95;2.17;;;18.50;50.80;;;14.59;59.33;95073.94;5043530;28;20032;-51
2022/05/31 05:39:12;;;;;;;6.78;2.05;;;18.80;50.40;;;14.94;59.11;95082.28;5072777;28;20037;-50
2022/05/31 05:41:41;;;;;;;5.63;1.85;;;19.10;50.00;;;15.24;57.08;95078.88;5072736;28;20024;-50
2022/05/31 05:44:09;;;;;;;3.15;1.40;;;19.40;49.60;;;15.34;55.90;95077.81;5072975;28;20039;-48
2022/05/31 05:46:38;;;;;;;2.72;1.80;;;19.50;49.00;;;15.32;56.17;95073.88;5071136;28;20017;-49
2022/05/31 05:49:03;;;;;;;3.90;1.67;;;19.50;48.70;;;15.64;57.63;95081.63;5052812;28;20039;-53
2022/05/31 05:51:32;;;;;;;4.47;1.80;;;19.90;48.40;;;15.99;53.37;95078.34;5072982;28;20178;-50
2022/05/31 05:54:01;;;;;;;3.47;1.50;;;20.30;48.40;;;16.18;51.58;95073.50;5054923;28;20028;-51
2022/05/31 05:56:27;;;;;;;1.80;1.55;;;20.60;46.80;;;16.33;50.89;95081.13;5038140;28;20102;-53
2022/05/31 05:58:52;;;;;;;2.08;1.42;;;20.70;46.10;;;16.46;50.72;95076.72;5054485;28;20033;-52
2022/05/31 06:01:30;;;;;;;3.17;1.30;;;20.80;45.60;;;16.48;51.24;95077.19;5038029;28;20032;-50
2022/05/31 06:04:09;;;;;;;4.20;1.80;;;21.00;45.20;;;16.55;50.51;95076.75;5045495;28;20020;-51
2022/05/31 06:06:57;;;;;;;3.03;1.35;;;21.20;44.60;;;16.47;50.74;95080.97;5033308;28;20096;-51
2022/05/31 06:09:27;;;;;;;3.75;1.45;;;21.40;43.80;;;16.87;50.14;95092.44;5053282;28;20040;-51
2022/05/31 06:12:06;;;;;;;3.97;2.10;;;21.60;43.50;;;16.97;49.92;95090.56;5055286;28;20483;-50
2022/05/31 06:14:55;;;;;;;4.88;1.80;;;21.60;43.40;;;17.06;49.63;95091.34;5072807;28;20029;-52
2022/05/31 06:17:27;;;;;;;3.83;1.70;;;21.70;43.20;;;17.25;48.65;95086.41;5043869;28;20513;-54
2022/05/31 06:20:00;;;;;;;4.15;1.77;;;22.00;42.60;;;17.30;49.47;95088.16;5073769;28;20033;-49
2022/05/31 06:22:29;;;;;;;;;;;22.00;42.60;;;17.22;49.37;95088.97;5056678;28;20028;-49
2022/05/31 06:25:05;;;;;;;2.60;1.58;;;21.90;42.80;;;17.17;48.87;95094.50;5055983;28;19909;-49
2022/05/31 06:27:31;;;;;;;1.90;1.30;;;22.00;42.30;;;17.08;50.80;95103.38;5073705;28;20030;-51
2022/05/31 06:29:57;;;;;;;4.25;1.75;;;22.00;42.40;;;17.08;48.93;95107.97;5073812;28;20107;-50
2022/05/31 06:32:22;;;;;;;3.47;1.50;;;22.00;42.10;;;17.00;51.29;95101.47;5073570;28;20032;-50
2022/05/31 06:34:48;;;;;;;3.45;1.65;;;21.90;42.20;;;16.90;50.39;95103.69;5073572;28;20039;-49
2022/05/31 06:37:20;;;;;;;2.38;1.55;;;21.90;42.20;;;16.84;50.82;95103.06;5055818;28;20044;-51
2022/05/31 06:39:49;;;;;;;3.35;1.50;;;21.80;42.10;;;16.79;53.30;95109.38;5055493;28;20086;-52
2022/05/31 06:42:15;;;;;;;5.20;1.90;;;21.70;42.50;;;16.83;51.02;95106.84;5055604;28;20017;-49
2022/05/31 06:44:50;;;;;;;6.28;1.80;;;21.80;42.30;;;16.91;50.96;95111.44;5055482;28;20035;-49
2022/05/31 06:47:15;;;;;;;5.20;1.63;;;21.90;42.10;;;17.03;51.53;95106.22;5055285;28;20036;-49
2022/05/31 06:49:47;;;;;;;1.73;1.50;;;22.00;42.10;;;17.20;49.88;95118.88;5055305;28;20028;-53
2022/05/31 06:57:52;;;;;;;2.60;1.50;;;22.40;41.40;;;17.70;48.94;95112.16;5041981;28;20055;-52
2022/05/31 07:00:20;;;;;;;5.65;1.90;;;22.90;40.70;;;17.98;48.84;95116.06;5073196;28;20467;-48
2022/05/31 07:02:47;;;;;;;3.78;2.25;;;23.20;40.40;;;18.06;47.57;95114.44;5055106;28;20060;-49
2022/05/31 07:05:22;;;;;;;3.25;1.67;;;23.30;40.20;;;18.24;47.74;95109.78;5055056;28;20467;-49
2022/05/31 07:07:51;;;;;;;5.40;1.88;;;23.50;39.90;;;18.30;48.14;95111.19;5072208;28;20057;-50
2022/05/31 07:10:17;;;;;;;3.13;1.60;;;23.60;39.60;;;18.06;48.31;95111.75;5039067;28;20083;-52
2022/05/31 07:12:50;;;;;;;5.68;1.60;;;23.70;38.90;;;18.41;48.44;95103.50;5072687;28;20403;-52
2022/05/31 07:15:19;;;;;;;4.72;1.60;;;23.80;38.90;;;18.72;47.54;95105.84;5072733;28;20055;-51
2022/05/31 07:17:48;;;;;;;3.88;1.85;;;24.00;38.70;;;18.86;46.75;95105.63;5072559;28;20028;-53
2022/05/31 07:20:17;;;;;;;4.80;1.55;;;24.20;38.50;;;18.94;45.74;95107.47;5072619;28;20074;-51
2022/05/31 07:22:45;;;;;;;3.05;1.73;;;24.10;38.20;;;18.88;45.54;95106.88;5054751;28;20078;-51
2022/05/31 07:25:20;;;;;;;4.78;1.60;;;24.30;37.80;;;18.98;45.98;95108.41;5072528;28;20032;-53
2022/05/31 07:27:50;;;;;;;6.40;1.95;;;24.30;37.50;;;19.08;45.51;95108.00;5038101;28;20036;-51
2022/05/31 07:30:19;;;;;;;5.15;1.88;;;24.40;37.40;;;19.14;45.73;95101.28;5037295;28;20047;-50
2022/05/31 07:32:47;;;;;;;2.90;1.85;;;24.40;37.30;;;19.45;46.79;95102.75;5072453;28;20024;-51
2022/05/31 07:35:15;;;;;;;4.97;1.60;;;24.50;37.50;;;19.63;45.68;95104.16;5072215;28;20179;-49
2022/05/31 07:37:46;;;;;;;2.15;1.60;;;24.60;37.50;;;19.80;43.86;95086.22;5072286;28;20032;-51
2022/05/31 07:40:18;;;;;;;4.55;1.80;;;24.90;37.10;;;20.21;44.30;95100.69;5054930;28;20640;-52
2022/05/31 07:42:50;;;;;;;2.47;1.80;;;25.40;36.70;;;20.59;43.02;95110.41;5054549;28;20032;-52
2022/05/31 07:45:18;;;;;;;4.15;2.25;;;25.90;36.30;;;20.57;44.43;95099.94;5072380;28;20040;-49
2022/05/31 07:47:47;;;;;;;4.18;2.08;;;26.00;36.20;;;21.10;42.21;95103.44;5054267;28;20387;-51
2022/05/31 07:50:15;;;;;;;3.17;1.73;;;26.50;35.60;;;21.45;42.36;95095.53;5072505;28;20376;-50
2022/05/31 07:52:44;;;;;;;5.25;2.08;;;27.00;35.30;;;21.73;39.89;95097.44;5072242;28;20384;-54
2022/05/31 07:55:10;;;;;;;3.42;2.05;;;27.50;34.50;;;22.02;40.24;95098.97;5072302;28;20059;-54
2022/05/31 08:00:24;;;;;;;3.20;1.80;;;28.20;33.20;;;22.70;38.25;95097.91;5072278;28;20044;-53
2022/05/31 08:02:55;;;;;;;2.28;1.80;;;29.00;32.30;;;22.86;38.91;95098.63;5031992;28;20461;-51
2022/05/31 08:05:23;;;;;;;3.72;1.73;;;29.30;31.60;;;23.13;36.37;95103.47;5052434;28;20028;-50
2022/05/31 08:07:49;;;;;;;2.40;1.95;;;29.50;31.10;;;23.40;35.75;95107.16;5071190;28;20415;-53
2022/05/31 08:10:20;;;;;;;5.65;1.95;;;29.60;30.50;;;23.75;36.69;95099.72;5071253;28;20052;-53
2022/05/31 08:12:52;;;;;;;2.67;1.80;;;29.90;30.20;;;23.95;35.32;95108.63;5053156;28;20024;-55
2022/05/31 08:15:24;;;;;;;5.28;2.13;;;30.50;29.60;;;23.99;35.18;95105.94;5050185;28;20035;-49
2022/05/31 08:17:50;;;;;;;4.22;1.85;;;30.40;29.00;;;24.16;35.07;95110.13;5049904;28;20033;-50
2022/05/31 08:20:42;;;;;;;3.05;2.28;;;30.40;29.10;;;24.55;35.05;95112.75;5065948;28;20021;-50
2022/05/31 08:23:11;;;;;;;2.17;1.98;;;30.70;28.90;;;24.52;34.87;95114.25;5040184;28;20550;-51
2022/05/31 08:25:44;;;;;;;4.80;2.03;;;31.10;28.80;;;24.58;34.52;95120.19;5075131;28;20040;-55
2022/05/31 08:28:10;;;;;;;4.05;2.03;;;31.10;28.50;;;24.56;33.67;95119.75;5075200;28;20029;-50
2022/05/31 08:30:42;;;;;;;3.80;1.60;;;31.00;28.20;;;24.28;34.95;95115.38;5057033;28;20031;-53
2022/05/31 08:33:10;;;;;;;5.60;1.90;;;30.90;28.20;;;24.14;34.38;95113.22;5056829;28;20784;-53
2022/05/31 08:35:36;;;;;;;2.00;1.80;;;30.60;27.90;;;23.89;35.17;95120.94;5023548;28;20424;-55
2022/05/31 08:38:02;;;;;;;6.28;2.15;;;30.30;27.90;;;23.58;35.25;95119.16;5056969;28;20035;-50
2022/05/31 08:40:27;;;;;;;3.50;2.00;;;30.00;28.00;;;23.48;35.26;95115.09;5074894;28;20064;-53
2022/05/31 08:43:06;;;;;;;3.05;2.08;;;29.80;28.10;;;23.47;37.25;95110.81;5074736;28;20027;-50
2022/05/31 08:46:07;;;;;;;4.50;2.00;;;29.70;28.40;;;23.44;36.38;95105.28;5040138;28;20043;-50
2022/05/31 08:48:46;;;;;;;3.92;2.00;;;29.70;28.40;;;23.32;37.73;95109.72;5043957;28;20127;-51
2022/05/31 08:57:14;;;;;;;5.03;2.40;;;30.00;29.00;;;23.90;35.82;95110.84;5059638;28;20051;-57
2022/05/31 08:59:53;;;;;;;5.40;2.67;;;30.40;28.30;;;24.24;34.76;95117.25;5052227;28;20035;-54
2022/05/31 09:02:47;;;;;;;4.38;2.22;;;30.80;28.50;;;24.57;34.39;95121.31;5048840;28;20424;-56
2022/05/31 09:06:03;;;;;;;5.85;2.65;;;31.10;27.70;;;24.80;33.71;95118.56;5054388;28;20037;-57
2022/05/31 09:08:41;;;;;;;5.97;2.35;;;31.50;27.40;;;25.19;34.52;95118.34;5035043;28;20048;-54
2022/05/31 09:11:39;;;;;;;3.20;2.50;;;31.90;27.30;;;25.47;33.01;95109.72;5058265;28;20116;-55
2022/05/31 09:14:17;;;;;;;5.80;2.58;;;32.20;26.90;;;25.79;31.87;95110.09;5041353;28;20107;-56
2022/05/31 09:17:08;;;;;;;4.05;2.17;;;32.50;26.40;;;25.92;32.49;95108.72;5058024;28;20040;-53
2022/05/31 09:20:03;;;;;;;7.70;2.53;;;32.70;26.30;;;25.99;32.51;95110.72;5057816;28;20045;-57
2022/05/31 09:22:30;;;;;;;3.17;2.35;;;33.00;25.90;;;25.99;30.97;95106.06;5057223;28;20025;-57
2022/05/31 09:25:05;;;;;;;3.13;2.50;;;33.20;25.60;;;25.96;30.98;95101.34;5057513;28;20027;-55
2022/05/31 09:27:44;;;;;;;6.68;2.92;;;33.00;25.40;;;26.31;30.64;95111.00;5074691;28;20430;-57
2022/05/31 09:31:04;;;;;;;5.03;2.58;;;33.00;25.00;;;26.88;30.37;95114.19;5074632;28;20035;-57
2022/05/31 09:33:54;;;;;;;4.35;2.33;;;33.30;24.80;;;27.30;28.70;95104.72;5074809;28;20033;-55
2022/05/31 09:37:08;;;;;;;5.18;2.53;;;33.70;24.70;;;27.24;28.52;95116.41;5058070;28;20032;-57
2022/05/31 09:39:53;;;;;;;3.25;2.58;;;33.70;24.10;;;27.52;26.84;95108.31;5054736;28;20460;-57
2022/05/31 09:42:29;;;;;;;6.18;2.60;;;33.80;23.90;;;28.12;27.71;95115.16;5056751;28;20086;-56
2022/05/31 09:45:10;;;;;;;5.28;2.50;;;34.20;24.00;;;27.57;27.06;95118.88;5057708;28;20029;-54
2022/05/31 09:47:36;;;;;;;3.65;2.80;;;34.40;23.20;;;26.96;26.33;95106.84;5074650;28;20036;-57
2022/05/31 09:50:03;;;;;;;6.18;2.80;;;34.40;22.30;;;27.37;26.55;95101.22;5069558;28;20022;-57
2022/05/31 09:52:47;;;;;;;6.82;2.80;;;34.50;22.30;;;27.93;26.29;95112.78;5065017;28;20027;-55
2022/05/31 09:58:08;;;;;;;3.42;2.58;;;35.60;21.70;;;27.30;26.74;95104.72;5059751;28;20120;-57
2022/05/31 10:01:02;;;;;;;3.20;2.45;;;35.70;21.20;;;26.44;27.92;95104.09;5074866;28;20386;-56
2022/05/31 10:03:54;;;;;;;9.93;2.30;;;35.30;21.10;;;26.51;28.53;95095.19;5074838;28;20056;-57
2022/05/31 10:06:30;;;;;;;4.27;2.23;;;34.70;21.40;;;26.75;27.73;95100.06;5042962;28;20036;-57
2022/05/31 10:08:56;;;;;;;5.38;2.20;;;34.40;21.60;;;26.67;28.08;95101.19;5074783;28;20027;-57
2022/05/31 10:11:30;;;;;;;4.85;2.15;;;34.30;21.70;;;27.00;27.08;95099.44;5074536;28;20032;-56
2022/05/31 10:14:36;;;;;;;5.40;2.45;;;34.50;21.60;;;26.96;27.43;95104.88;5056587;28;20039;-57
2022/05/31 10:17:33;;;;;;;4.45;2.63;;;34.50;21.70;;;26.81;27.83;95096.97;5058549;28;20044;-57
2022/05/31 10:20:18;;;;;;;3.72;2.67;;;34.80;21.80;;;26.86;28.40;95096.63;5074639;28;20107;-57
2022/05/31 10:23:15;;;;;;;3.05;2.40;;;35.00;21.50;;;27.51;27.04;95100.47;5075039;28;20449;-57
2022/05/31 10:25:53;;;;;;;7.95;2.53;;;35.20;21.60;;;27.62;27.23;95098.56;5049975;28;20047;-57
2022/05/31 10:28:35;;;;;;;2.72;2.10;;;35.40;21.50;;;28.05;26.41;95096.75;5075007;28;20059;-57
2022/05/31 10:31:35;;;;;;;3.33;2.50;;;35.50;21.40;;;28.54;25.45;95095.22;5057466;28;20038;-56
2022/05/31 10:34:34;;;;;;;4.88;2.67;;;36.10;21.20;;;28.61;25.40;95099.91;5048043;28;20032;-55
2022/05/31 10:37:24;;;;;;;3.17;2.35;;;36.60;20.80;;;28.49;25.07;95094.88;5057763;28;20123;-57
2022/05/31 10:40:06;;;;;;;3.28;2.30;;;36.70;20.40;;;28.10;26.82;95104.56;5054385;28;20029;-58
2022/05/31 10:42:37;;;;;;;4.93;2.33;;;36.20;20.50;;;27.38;26.97;95117.22;5068190;28;20028;-57
2022/05/31 10:45:07;;;;;;;2.72;1.95;;;35.60;20.60;;;27.15;27.92;95114.00;5056905;28;20032;-57
2022/05/31 10:47:36;;;;;;;5.38;2.10;;;35.00;20.90;;;27.06;28.01;95125.25;5037494;28;20029;-57
2022/05/31 10:50:07;;;;;;;3.78;1.90;;;34.50;21.30;;;26.13;28.52;95121.75;5055696;28;20020;-58
2022/05/31 10:53:12;;;;;;;3.40;2.17;;;34.00;21.50;;;25.62;30.29;95128.63;5081011;28;20081;-56
2022/05/31 10:56:05;;;;;;;2.13;1.92;;;33.20;21.80;;;25.32;31.55;95127.84;5053341;28;20391;-56
2022/05/31 10:59:03;;;;;;;7.65;2.20;;;32.50;22.80;;;24.82;31.93;95122.50;5060540;28;20400;-57
2022/05/31 11:02:35;;;;;;;3.75;2.05;;;31.80;23.20;;;23.63;33.21;95128.94;5054653;28;20035;-54
2022/05/31 11:05:15;;;;;;;4.68;2.55;;;31.20;23.70;;;22.40;34.82;95133.63;5101825;27;20374;-53
2022/05/31 11:12:09;;;;;;;3.30;1.83;;;29.50;25.00;;;21.17;38.15;95152.38;5090043;28;20043;-55
2022/05/31 11:15:00;;;;;;;4.00;1.63;;;28.60;26.00;;;20.97;39.17;95166.88;5008295;28;20496;-54
2022/05/31 11:18:24;;;;;;;5.05;1.70;;;27.60;27.10;;;20.83;39.24;95166.44;5085280;28;20127;-53
2022/05/31 11:21:43;;;;;;;2.13;1.50;;;27.10;27.80;;;20.61;40.32;95165.75;5045639;28;20055;-53